Time,TemperatureF,DewpointF,PressureIn,WindDirection,WindDirectionDegrees,WindSpeedMPH,WindSpeedGustMPH,Humidity,HourlyPrecipIn,Conditions,Clouds,dailyrainin,SolarRadiationWatts/m^2,SoftwareType,DateUTC
2016-02-05 00:02:00,0.0,0.0,30.73,SE,134,4.0,5.0,0,0.00,,FEW,0.00,0.00,VWS V14.01,2016-02-05 05:02:00,
2016-02-05 00:07:00,0.0,0.0,30.74,South,173,4.0,4.0,0,0.00,,FEW,0.00,0.00,VWS V14.01,2016-02-05 05:07:00,
2016-02-05 00:12:00,0.0,0.0,30.74,SSE,153,2.0,7.0,0,0.00,,FEW,0.00,0.00,VWS V14.01,2016-02-05 05:12:00,
2016-02-05 00:17:00,0.0,0.0,30.74,SE,128,5.0,5.0,0,0.00,,FEW,0.00,0.00,VWS V14.01,2016-02-05 05:17:00,
2016-02-05 00:22:00,0.0,0.0,30.74,SE,130,4.0,6.0,0,0.00,,FEW,0.00,0.00,VWS V14.01,2016-02-05 05:22:00,
2016-02-05 00:27:00,0.0,0.0,30.74,SE,126,5.0,7.0,0,0.00,,FEW,0.00,0.00,VWS V14.01,2016-02-05 05:27:00,
2016-02-05 00:32:00,0.0,0.0,30.74,ESE,123,0.0,9.0,0,0.00,,FEW,0.00,0.00,VWS V14.01,2016-02-05 05:32:00,
2016-02-05 00:37:00,0.0,0.0,30.74,SE,132,3.0,3.0,0,0.00,,FEW,0.00,0.00,VWS V14.01,2016-02-05 05:37:00,
2016-02-05 00:42:00,0.0,0.0,30.74,SE,140,0.0,6.0,0,0.00,,FEW,0.00,0.00,VWS V14.01,2016-02-05 05:42:00,
2016-02-05 00:47:00,0.0,0.0,30.74,SE,140,0.0,1.0,0,0.00,,FEW,0.00,0.00,VWS V14.01,2016-02-05 05:47:00,
2016-02-05 00:52:00,0.0,0.0,30.76,SSE,152,0.0,4.0,0,0.00,,FEW,0.00,0.00,VWS V14.01,2016-02-05 05:52:00,
2016-02-05 00:57:00,0.0,0.0,30.76,SSE,154,0.0,2.0,0,0.00,,FEW,0.00,0.00,VWS V14.01,2016-02-05 05:57:00,
2016-02-05 01:02:00,0.0,0.0,30.76,SE,140,3.0,4.0,0,0.00,,FEW,0.00,0.00,VWS V14.01,2016-02-05 06:02:00,
2016-02-05 01:07:00,0.0,0.0,30.78,SSE,166,0.0,2.0,0,0.00,,FEW,0.00,0.00,VWS V14.01,2016-02-05 06:07:00,
2016-02-05 01:11:00,0.0,0.0,30.78,South,174,0.0,4.0,0,0.00,,FEW,0.00,0.00,VWS V14.01,2016-02-05 06:11:00,
2016-02-05 01:16:00,0.0,0.0,30.78,SSE,167,1.0,4.0,0,0.00,,FEW,0.00,0.00,VWS V14.01,2016-02-05 06:16:00,
2016-02-05 01:21:00,0.0,0.0,30.80,South,171,1.0,4.0,0,0.00,,FEW,0.00,0.00,VWS V14.01,2016-02-05 06:21:00,
2016-02-05 01:26:00,0.0,0.0,30.80,SSE,165,0.0,2.0,0,0.00,,FEW,0.00,0.00,VWS V14.01,2016-02-05 06:26:00,
2016-02-05 01:31:00,0.0,0.0,30.80,SSE,167,1.0,3.0,0,0.00,,FEW,0.00,0.00,VWS V14.01,2016-02-05 06:31:00,
2016-02-05 01:36:00,0.0,0.0,30.80,SSE,163,0.0,3.0,0,0.00,,FEW,0.00,0.00,VWS V14.01,2016-02-05 06:36:00,
2016-02-05 01:41:00,0.0,0.0,30.80,South,178,0.0,4.0,0,0.00,,FEW,0.00,0.00,VWS V14.01,2016-02-05 06:41:00,
2016-02-05 01:46:00,0.0,0.0,30.80,South,173,0.0,1.0,0,0.00,,FEW,0.00,0.00,VWS V14.01,2016-02-05 06:46:00,
2016-02-05 01:51:00,0.0,0.0,30.80,SSE,150,1.0,6.0,0,0.00,,FEW,0.00,0.00,VWS V14.01,2016-02-05 06:51:00,
2016-02-05 01:56:00,0.0,0.0,30.80,SSE,155,2.0,2.0,0,0.00,,FEW,0.00,0.00,VWS V14.01,2016-02-05 06:56:00,
2016-02-05 02:01:00,0.0,0.0,30.80,WSW,250,7.0,7.0,0,0.00,,FEW,0.00,0.00,VWS V14.01,2016-02-05 07:01:00,
2016-02-05 02:06:00,0.0,0.0,30.82,NW,312,11.0,11.0,0,0.00,,FEW,0.00,0.00,VWS V14.01,2016-02-05 07:06:00,
2016-02-05 02:11:00,0.0,0.0,30.82,NNW,336,6.0,14.0,0,0.00,,FEW,0.00,0.00,VWS V14.01,2016-02-05 07:11:00,
2016-02-05 02:16:00,0.0,0.0,30.82,NNW,341,16.0,16.0,0,0.03,,FEW,0.03,0.00,VWS V14.01,2016-02-05 07:16:00,
2016-02-05 02:21:00,0.0,0.0,30.67,NNE,31,11.0,21.0,0,0.07,,FEW,0.07,0.00,VWS V14.01,2016-02-05 07:21:00,
2016-02-05 02:26:00,0.0,0.0,30.67,NNW,341,15.0,15.0,0,0.11,,FEW,0.11,0.00,VWS V14.01,2016-02-05 07:26:00,
2016-02-05 02:31:00,0.0,0.0,30.67,North,351,7.0,18.0,0,0.14,,FEW,0.14,0.00,VWS V14.01,2016-02-05 07:31:00,
2016-02-05 02:36:00,0.0,0.0,30.60,NNW,347,18.0,18.0,0,0.20,,FEW,0.20,0.00,VWS V14.01,2016-02-05 07:36:00,
2016-02-05 02:41:00,0.0,0.0,30.60,NW,306,9.0,22.0,0,0.28,,FEW,0.28,0.00,VWS V14.01,2016-02-05 07:41:00,
2016-02-05 02:46:00,0.0,0.0,30.60,NW,315,8.0,14.0,0,0.32,,FEW,0.32,0.00,VWS V14.01,2016-02-05 07:46:00,
2016-02-05 02:51:00,0.0,0.0,30.60,NNW,342,9.0,20.0,0,0.33,,FEW,0.33,0.00,VWS V14.01,2016-02-05 07:51:00,
2016-02-05 02:56:00,0.0,0.0,30.60,NNW,329,7.0,14.0,0,0.34,,FEW,0.34,0.00,VWS V14.01,2016-02-05 07:56:00,
2016-02-05 03:01:00,0.0,0.0,30.60,NNW,329,12.0,18.0,0,0.37,,FEW,0.37,0.00,VWS V14.01,2016-02-05 08:01:00,
2016-02-05 03:11:00,0.0,0.0,30.62,NNW,327,7.0,15.0,0,0.39,,FEW,0.39,0.00,VWS V14.01,2016-02-05 08:11:00,
2016-02-05 03:16:00,0.0,0.0,30.62,NNW,338,7.0,14.0,0,0.40,,FEW,0.42,0.00,VWS V14.01,2016-02-05 08:16:00,
2016-02-05 03:21:00,0.0,0.0,30.62,NNW,336,8.0,14.0,0,0.41,,FEW,0.43,0.00,VWS V14.01,2016-02-05 08:21:00,
2016-02-05 03:26:00,0.0,0.0,30.62,NW,320,8.0,9.0,0,0.33,,FEW,0.44,0.00,VWS V14.01,2016-02-05 08:26:00,
2016-02-05 03:31:00,0.0,0.0,30.62,NNW,331,9.0,17.0,0,0.34,,FEW,0.45,0.00,VWS V14.01,2016-02-05 08:31:00,
2016-02-05 03:36:00,0.0,0.0,30.62,North,355,14.0,14.0,0,0.28,,FEW,0.46,0.00,VWS V14.01,2016-02-05 08:36:00,
2016-02-05 03:41:00,0.0,0.0,30.62,North,5,12.0,18.0,0,0.29,,FEW,0.47,0.00,VWS V14.01,2016-02-05 08:41:00,
2016-02-05 03:46:00,0.0,0.0,30.62,NNW,338,10.0,10.0,0,0.17,,FEW,0.48,0.00,VWS V14.01,2016-02-05 08:46:00,
2016-02-05 03:51:00,0.0,0.0,30.59,North,9,10.0,17.0,0,0.18,,FEW,0.49,0.00,VWS V14.01,2016-02-05 08:51:00,
2016-02-05 03:56:00,0.0,0.0,30.59,NW,317,17.0,17.0,0,0.16,,FEW,0.50,0.00,VWS V14.01,2016-02-05 08:56:00,
2016-02-05 04:06:00,0.0,0.0,30.57,North,355,13.0,14.0,0,0.12,,FEW,0.50,0.00,VWS V14.01,2016-02-05 09:06:00,
2016-02-05 04:11:00,0.0,0.0,30.57,North,360,7.0,16.0,0,0.12,,FEW,0.50,0.00,VWS V14.01,2016-02-05 09:11:00,
2016-02-05 04:16:00,0.0,0.0,30.57,North,355,7.0,11.0,0,0.08,,FEW,0.50,0.00,VWS V14.01,2016-02-05 09:16:00,
2016-02-05 04:21:00,0.0,0.0,30.55,NW,324,12.0,21.0,0,0.08,,FEW,0.50,0.00,VWS V14.01,2016-02-05 09:21:00,
2016-02-05 04:26:00,0.0,0.0,30.55,North,355,9.0,14.0,0,0.06,,FEW,0.50,0.00,VWS V14.01,2016-02-05 09:26:00,
2016-02-05 04:31:00,0.0,0.0,30.55,NNW,340,12.0,15.0,0,0.06,,FEW,0.50,0.00,VWS V14.01,2016-02-05 09:31:00,
2016-02-05 04:36:00,0.0,0.0,30.56,NNW,338,5.0,16.0,0,0.04,,FEW,0.50,0.00,VWS V14.01,2016-02-05 09:36:00,
2016-02-05 04:41:00,0.0,0.0,30.56,North,355,8.0,16.0,0,0.04,,FEW,0.50,0.00,VWS V14.01,2016-02-05 09:41:00,
2016-02-05 04:46:00,0.0,0.0,30.56,NNW,346,9.0,14.0,0,0.02,,FEW,0.50,0.00,VWS V14.01,2016-02-05 09:46:00,
2016-02-05 04:51:00,0.0,0.0,30.56,NNW,333,7.0,15.0,0,0.02,,FEW,0.50,0.00,VWS V14.01,2016-02-05 09:51:00,
2016-02-05 04:56:00,0.0,0.0,30.56,NNW,344,13.0,17.0,0,0.00,,FEW,0.50,0.00,VWS V14.01,2016-02-05 09:56:00,
2016-02-05 05:01:00,0.0,0.0,30.56,NNW,346,13.0,20.0,0,0.00,,FEW,0.50,0.00,VWS V14.01,2016-02-05 10:01:00,
2016-02-05 05:11:00,0.0,0.0,30.57,NNW,341,11.0,21.0,0,0.01,,FEW,0.51,0.00,VWS V14.01,2016-02-05 10:11:00,
2016-02-05 05:16:00,0.0,0.0,30.57,NW,323,9.0,19.0,0,0.01,,FEW,0.51,0.00,VWS V14.01,2016-02-05 10:16:00,
2016-02-05 05:21:00,0.0,0.0,30.58,NNW,344,12.0,22.0,0,0.01,,FEW,0.51,0.00,VWS V14.01,2016-02-05 10:21:00,
2016-02-05 05:31:00,0.0,0.0,30.58,North,5,12.0,20.0,0,0.01,,FEW,0.51,0.00,VWS V14.01,2016-02-05 10:31:00,
2016-02-05 05:36:00,0.0,0.0,30.55,North,349,13.0,16.0,0,0.01,,FEW,0.51,0.00,VWS V14.01,2016-02-05 10:36:00,
2016-02-05 05:41:00,0.0,0.0,30.55,NNW,344,11.0,24.0,0,0.01,,FEW,0.51,0.00,VWS V14.01,2016-02-05 10:41:00,
2016-02-05 05:46:00,0.0,0.0,30.55,North,9,17.0,21.0,0,0.01,,FEW,0.51,0.00,VWS V14.01,2016-02-05 10:46:00,
2016-02-05 05:51:00,0.0,0.0,30.51,NNW,340,26.0,26.0,0,0.01,,FEW,0.51,0.00,VWS V14.01,2016-02-05 10:51:00,
2016-02-05 05:56:00,0.0,0.0,30.51,North,355,24.0,24.0,0,0.01,,FEW,0.51,0.00,VWS V14.01,2016-02-05 10:56:00,
2016-02-05 06:01:00,0.0,0.0,30.51,North,350,13.0,24.0,0,0.01,,FEW,0.51,0.00,VWS V14.01,2016-02-05 11:01:00,
2016-02-05 06:06:00,0.0,0.0,30.48,North,9,11.0,16.0,0,0.00,,FEW,0.51,0.00,VWS V14.01,2016-02-05 11:06:00,
2016-02-05 06:11:00,0.0,0.0,30.48,NNE,17,13.0,22.0,0,0.00,,FEW,0.51,0.00,VWS V14.01,2016-02-05 11:11:00,
2016-02-05 06:16:00,0.0,0.0,30.48,North,5,18.0,18.0,0,0.00,,FEW,0.51,0.00,VWS V14.01,2016-02-05 11:16:00,
2016-02-05 06:21:00,0.0,0.0,30.46,North,350,14.0,19.0,0,0.00,,FEW,0.51,0.00,VWS V14.01,2016-02-05 11:21:00,
2016-02-05 06:26:00,0.0,0.0,30.46,NNE,24,16.0,16.0,0,0.00,,FEW,0.51,0.00,VWS V14.01,2016-02-05 11:26:00,
2016-02-05 06:31:00,0.0,0.0,30.46,NNW,347,13.0,20.0,0,0.00,,FEW,0.51,0.00,VWS V14.01,2016-02-05 11:31:00,
2016-02-05 06:36:00,0.0,0.0,30.44,North,351,16.0,17.0,0,0.00,,FEW,0.51,0.00,VWS V14.01,2016-02-05 11:36:00,
2016-02-05 06:41:00,0.0,0.0,30.44,North,360,11.0,18.0,0,0.00,,FEW,0.51,0.00,VWS V14.01,2016-02-05 11:41:00,
2016-02-05 06:51:00,0.0,0.0,30.44,NNE,24,14.0,19.0,0,0.00,,FEW,0.51,0.00,VWS V14.01,2016-02-05 11:51:00,
2016-02-05 06:56:00,0.0,0.0,30.44,NNW,346,13.0,19.0,0,0.00,,FEW,0.51,0.00,VWS V14.01,2016-02-05 11:56:00,
2016-02-05 07:01:00,0.0,0.0,30.44,North,5,12.0,19.0,0,0.00,,FEW,0.51,0.00,VWS V14.01,2016-02-05 12:01:00,
2016-02-05 07:06:00,0.0,0.0,30.44,NNE,12,10.0,16.0,0,0.00,,FEW,0.51,0.00,VWS V14.01,2016-02-05 12:06:00,
2016-02-05 07:11:00,0.0,0.0,30.44,NE,39,7.0,23.0,0,0.00,,FEW,0.51,0.00,VWS V14.01,2016-02-05 12:11:00,
2016-02-05 07:21:00,0.0,0.0,30.44,NNW,346,14.0,15.0,0,0.00,,FEW,0.51,5.00,VWS V14.01,2016-02-05 12:21:00,
2016-02-05 07:26:00,0.0,0.0,30.44,North,5,10.0,17.0,0,0.00,,FEW,0.51,7.00,VWS V14.01,2016-02-05 12:26:00,
2016-02-05 07:31:00,0.0,0.0,30.44,North,5,15.0,18.0,0,0.00,,FEW,0.51,11.00,VWS V14.01,2016-02-05 12:31:00,
2016-02-05 07:36:00,0.0,0.0,30.40,North,349,9.0,11.0,0,0.00,,FEW,0.51,11.00,VWS V14.01,2016-02-05 12:36:00,
2016-02-05 07:41:00,0.0,0.0,30.40,North,355,12.0,16.0,0,0.00,,FEW,0.51,14.00,VWS V14.01,2016-02-05 12:41:00,
2016-02-05 07:46:00,0.0,0.0,30.40,NNE,26,10.0,12.0,0,0.00,,FEW,0.51,16.00,VWS V14.01,2016-02-05 12:46:00,
2016-02-05 07:51:00,0.0,0.0,30.41,NW,325,18.0,18.0,0,0.00,,FEW,0.51,18.00,VWS V14.01,2016-02-05 12:51:00,
2016-02-05 07:56:00,0.0,0.0,30.41,NNW,338,13.0,16.0,0,0.00,,FEW,0.51,21.00,VWS V14.01,2016-02-05 12:56:00,
2016-02-05 08:01:00,0.0,0.0,30.41,NNW,344,5.0,23.0,0,0.00,,FEW,0.51,26.00,VWS V14.01,2016-02-05 13:01:00,
2016-02-05 08:06:00,0.0,0.0,30.36,NNW,342,6.0,9.0,0,0.00,,FEW,0.51,32.00,VWS V14.01,2016-02-05 13:06:00,
2016-02-05 08:11:00,0.0,0.0,30.36,North,10,15.0,17.0,0,0.00,,FEW,0.51,40.00,VWS V14.01,2016-02-05 13:11:00,
2016-02-05 08:16:00,0.0,0.0,30.36,North,5,15.0,15.0,0,0.00,,FEW,0.51,51.00,VWS V14.01,2016-02-05 13:16:00,
2016-02-05 08:26:00,0.0,0.0,30.34,NE,37,15.0,15.0,0,0.00,,FEW,0.51,62.00,VWS V14.01,2016-02-05 13:26:00,
2016-02-05 08:31:00,0.0,0.0,30.34,NNE,17,17.0,22.0,0,0.00,,FEW,0.51,62.00,VWS V14.01,2016-02-05 13:31:00,
2016-02-05 08:36:00,0.0,0.0,30.32,NNW,333,15.0,15.0,0,0.00,,FEW,0.51,74.00,VWS V14.01,2016-02-05 13:36:00,
2016-02-05 08:41:00,0.0,0.0,30.32,NNE,13,17.0,28.0,0,0.00,,FEW,0.51,83.00,VWS V14.01,2016-02-05 13:41:00,
2016-02-05 08:46:00,0.0,0.0,30.32,NE,46,16.0,16.0,0,0.00,,FEW,0.51,95.00,VWS V14.01,2016-02-05 13:46:00,
2016-02-05 08:51:00,0.0,0.0,30.29,NNE,32,9.0,21.0,0,0.00,,FEW,0.51,104.00,VWS V14.01,2016-02-05 13:51:00,
2016-02-05 08:56:00,0.0,0.0,30.29,NNE,17,13.0,14.0,0,0.00,,FEW,0.51,98.00,VWS V14.01,2016-02-05 13:56:00,
2016-02-05 09:01:00,0.0,0.0,30.29,North,5,16.0,20.0,0,0.00,,FEW,0.51,121.00,VWS V14.01,2016-02-05 14:01:00,
2016-02-05 09:06:00,0.0,0.0,30.26,ENE,58,15.0,16.0,0,0.00,,FEW,0.51,155.00,VWS V14.01,2016-02-05 14:06:00,
2016-02-05 09:11:00,0.0,0.0,30.26,North,355,12.0,20.0,0,0.00,,FEW,0.51,158.00,VWS V14.01,2016-02-05 14:11:00,
2016-02-05 09:16:00,0.0,0.0,30.26,NNE,14,11.0,16.0,0,0.00,,FEW,0.51,218.00,VWS V14.01,2016-02-05 14:16:00,
2016-02-05 09:21:00,0.0,0.0,30.26,NNE,22,14.0,17.0,0,0.00,,FEW,0.51,128.00,VWS V14.01,2016-02-05 14:21:00,
2016-02-05 09:26:00,0.0,0.0,30.26,NNW,337,13.0,13.0,0,0.00,,FEW,0.51,223.00,VWS V14.01,2016-02-05 14:26:00,
2016-02-05 09:31:00,0.0,0.0,30.26,North,5,10.0,15.0,0,0.00,,FEW,0.51,255.00,VWS V14.01,2016-02-05 14:31:00,
2016-02-05 09:41:00,0.0,0.0,30.26,North,11,8.0,17.0,0,0.00,,FEW,0.51,478.00,VWS V14.01,2016-02-05 14:41:00,
2016-02-05 09:46:00,0.0,0.0,30.26,NE,40,15.0,18.0,0,0.00,,FEW,0.51,485.00,VWS V14.01,2016-02-05 14:46:00,
2016-02-05 09:51:00,0.0,0.0,30.25,NNE,15,8.0,18.0,0,0.00,,FEW,0.51,496.00,VWS V14.01,2016-02-05 14:51:00,
2016-02-05 09:56:00,0.0,0.0,30.25,NNE,26,10.0,15.0,0,0.00,,FEW,0.51,508.00,VWS V14.01,2016-02-05 14:56:00,
2016-02-05 10:01:00,0.0,0.0,30.25,NE,49,5.0,16.0,0,0.00,,FEW,0.51,522.00,VWS V14.01,2016-02-05 15:01:00,
2016-02-05 10:06:00,0.0,0.0,30.24,NNE,25,5.0,14.0,0,0.00,,FEW,0.51,538.00,VWS V14.01,2016-02-05 15:06:00,
2016-02-05 10:11:00,0.0,0.0,30.24,NNW,344,6.0,20.0,0,0.00,,FEW,0.51,550.00,VWS V14.01,2016-02-05 15:11:00,
2016-02-05 10:16:00,0.0,0.0,30.24,North,350,12.0,14.0,0,0.00,,FEW,0.51,564.00,VWS V14.01,2016-02-05 15:16:00,
2016-02-05 10:21:00,0.0,0.0,30.22,NNE,21,18.0,18.0,0,0.00,,FEW,0.51,575.00,VWS V14.01,2016-02-05 15:21:00,
2016-02-05 10:26:00,0.0,0.0,30.22,NE,37,17.0,17.0,0,0.00,,FEW,0.51,589.00,VWS V14.01,2016-02-05 15:26:00,
2016-02-05 10:31:00,0.0,0.0,30.22,NNE,22,13.0,22.0,0,0.00,,FEW,0.51,601.00,VWS V14.01,2016-02-05 15:31:00,
2016-02-05 10:36:00,0.0,0.0,30.21,NNW,344,18.0,18.0,0,0.00,,FEW,0.51,626.00,VWS V14.01,2016-02-05 15:36:00,
2016-02-05 10:41:00,0.0,0.0,30.21,NNE,24,7.0,20.0,0,0.00,,FEW,0.51,664.00,VWS V14.01,2016-02-05 15:41:00,
2016-02-05 10:46:00,0.0,0.0,30.21,NNW,338,7.0,12.0,0,0.00,,FEW,0.51,487.00,VWS V14.01,2016-02-05 15:46:00,
2016-02-05 10:51:00,0.0,0.0,30.21,North,5,8.0,17.0,0,0.00,,FEW,0.51,394.00,VWS V14.01,2016-02-05 15:51:00,
2016-02-05 10:56:00,0.0,0.0,30.21,NNE,24,8.0,13.0,0,0.00,,FEW,0.51,404.00,VWS V14.01,2016-02-05 15:56:00,
2016-02-05 11:01:00,0.0,0.0,30.21,NNE,16,8.0,15.0,0,0.00,,FEW,0.51,468.00,VWS V14.01,2016-02-05 16:01:00,
2016-02-05 11:06:00,0.0,0.0,30.20,North,360,10.0,10.0,0,0.00,,FEW,0.51,413.00,VWS V14.01,2016-02-05 16:06:00,
2016-02-05 11:11:00,0.0,0.0,30.20,NNE,28,10.0,14.0,0,0.00,,FEW,0.51,373.00,VWS V14.01,2016-02-05 16:11:00,
2016-02-05 11:16:00,0.0,0.0,30.20,NNE,13,12.0,12.0,0,0.00,,FEW,0.51,432.00,VWS V14.01,2016-02-05 16:16:00,
2016-02-05 11:21:00,0.0,0.0,30.20,NNE,27,9.0,17.0,0,0.00,,FEW,0.51,413.00,VWS V14.01,2016-02-05 16:21:00,
2016-02-05 11:26:00,0.0,0.0,30.20,NNE,30,6.0,6.0,0,0.00,,FEW,0.51,450.00,VWS V14.01,2016-02-05 16:26:00,
2016-02-05 11:31:00,0.0,0.0,30.20,NE,36,5.0,16.0,0,0.00,,FEW,0.51,443.00,VWS V14.01,2016-02-05 16:31:00,
2016-02-05 11:36:00,0.0,0.0,30.20,NW,316,10.0,10.0,0,0.00,,FEW,0.51,425.00,VWS V14.01,2016-02-05 16:36:00,
2016-02-05 11:41:00,0.0,0.0,30.20,North,355,14.0,19.0,0,0.00,,FEW,0.51,452.00,VWS V14.01,2016-02-05 16:41:00,
2016-02-05 11:46:00,0.0,0.0,30.20,NE,47,11.0,11.0,0,0.00,,FEW,0.51,608.00,VWS V14.01,2016-02-05 16:46:00,
2016-02-05 11:51:00,0.0,0.0,30.18,NE,46,16.0,18.0,0,0.00,,FEW,0.51,605.00,VWS V14.01,2016-02-05 16:51:00,
2016-02-05 11:56:00,0.0,0.0,30.18,NNE,18,8.0,19.0,0,0.00,,FEW,0.51,594.00,VWS V14.01,2016-02-05 16:56:00,
2016-02-05 12:01:00,0.0,0.0,30.18,NNE,33,16.0,16.0,0,0.00,,FEW,0.51,626.00,VWS V14.01,2016-02-05 17:01:00,
2016-02-05 12:06:00,0.0,0.0,30.17,NNE,19,7.0,19.0,0,0.00,,FEW,0.51,624.00,VWS V14.01,2016-02-05 17:06:00,
2016-02-05 12:11:00,0.0,0.0,30.17,NE,41,11.0,16.0,0,0.00,,FEW,0.51,598.00,VWS V14.01,2016-02-05 17:11:00,
2016-02-05 12:16:00,0.0,0.0,30.17,NNE,24,15.0,15.0,0,0.00,,FEW,0.51,675.00,VWS V14.01,2016-02-05 17:16:00,
2016-02-05 12:21:00,0.0,0.0,30.16,NNE,15,6.0,19.0,0,0.00,,FEW,0.51,545.00,VWS V14.01,2016-02-05 17:21:00,
2016-02-05 12:26:00,0.0,0.0,30.16,NE,51,10.0,19.0,0,0.00,,FEW,0.51,735.00,VWS V14.01,2016-02-05 17:26:00,
2016-02-05 12:31:00,0.0,0.0,30.16,NNE,32,6.0,18.0,0,0.00,,FEW,0.51,561.00,VWS V14.01,2016-02-05 17:31:00,
2016-02-05 12:36:00,0.0,0.0,30.13,North,360,12.0,18.0,0,0.00,,FEW,0.51,469.00,VWS V14.01,2016-02-05 17:36:00,
2016-02-05 12:41:00,0.0,0.0,30.13,North,351,11.0,17.0,0,0.00,,FEW,0.51,473.00,VWS V14.01,2016-02-05 17:41:00,
2016-02-05 12:51:00,0.0,0.0,30.11,NE,47,16.0,16.0,0,0.00,,FEW,0.51,515.00,VWS V14.01,2016-02-05 17:51:00,
2016-02-05 12:56:00,0.0,0.0,30.11,ENE,78,9.0,18.0,0,0.00,,FEW,0.51,494.00,VWS V14.01,2016-02-05 17:56:00,
2016-02-05 13:01:00,0.0,0.0,30.11,NNE,22,13.0,17.0,0,0.00,,FEW,0.51,476.00,VWS V14.01,2016-02-05 18:01:00,
2016-02-05 13:06:00,0.0,0.0,30.09,NNE,32,8.0,17.0,0,0.00,,FEW,0.51,457.00,VWS V14.01,2016-02-05 18:06:00,
2016-02-05 13:11:00,0.0,0.0,30.09,NNE,25,11.0,16.0,0,0.00,,FEW,0.51,457.00,VWS V14.01,2016-02-05 18:11:00,
2016-02-05 13:16:00,0.0,0.0,30.09,NNE,26,12.0,16.0,0,0.00,,FEW,0.51,448.00,VWS V14.01,2016-02-05 18:16:00,
2016-02-05 13:21:00,0.0,0.0,30.08,NE,39,5.0,15.0,0,0.00,,FEW,0.51,446.00,VWS V14.01,2016-02-05 18:21:00,
2016-02-05 13:26:00,0.0,0.0,30.08,NNE,17,12.0,15.0,0,0.00,,FEW,0.51,404.00,VWS V14.01,2016-02-05 18:26:00,
2016-02-05 13:31:00,0.0,0.0,30.08,NE,47,6.0,18.0,0,0.00,,FEW,0.51,406.00,VWS V14.01,2016-02-05 18:31:00,
2016-02-05 13:36:00,0.0,0.0,30.07,NNE,16,11.0,19.0,0,0.00,,FEW,0.51,387.00,VWS V14.01,2016-02-05 18:36:00,
2016-02-05 13:41:00,0.0,0.0,30.07,NNE,15,7.0,16.0,0,0.00,,FEW,0.51,373.00,VWS V14.01,2016-02-05 18:41:00,
2016-02-05 13:46:00,0.0,0.0,30.07,NNE,24,9.0,16.0,0,0.00,,FEW,0.51,374.00,VWS V14.01,2016-02-05 18:46:00,
2016-02-05 13:51:00,0.0,0.0,30.06,NNE,31,3.0,15.0,0,0.00,,FEW,0.51,410.00,VWS V14.01,2016-02-05 18:51:00,
2016-02-05 13:56:00,0.0,0.0,30.06,NNE,28,9.0,16.0,0,0.00,,FEW,0.51,424.00,VWS V14.01,2016-02-05 18:56:00,
2016-02-05 14:01:00,0.0,0.0,30.06,NNE,21,8.0,16.0,0,0.00,,FEW,0.51,394.00,VWS V14.01,2016-02-05 19:01:00,
2016-02-05 14:06:00,0.0,0.0,30.06,NNE,15,14.0,16.0,0,0.00,,FEW,0.51,394.00,VWS V14.01,2016-02-05 19:06:00,
2016-02-05 14:10:00,0.0,0.0,30.06,NE,36,8.0,16.0,0,0.00,,FEW,0.51,390.00,VWS V14.01,2016-02-05 19:10:00,
2016-02-05 14:20:00,0.0,0.0,30.06,NNE,22,2.0,13.0,0,0.00,,FEW,0.51,327.00,VWS V14.01,2016-02-05 19:20:00,
2016-02-05 14:25:00,0.0,0.0,30.06,NE,36,8.0,16.0,0,0.00,,FEW,0.51,302.00,VWS V14.01,2016-02-05 19:25:00,
2016-02-05 14:30:00,0.0,0.0,30.06,NNE,22,8.0,14.0,0,0.00,,FEW,0.51,278.00,VWS V14.01,2016-02-05 19:30:00,
2016-02-05 14:35:00,0.0,0.0,30.05,North,9,12.0,15.0,0,0.00,,FEW,0.51,279.00,VWS V14.01,2016-02-05 19:35:00,
2016-02-05 14:40:00,0.0,0.0,30.05,NNE,13,5.0,14.0,0,0.00,,FEW,0.51,269.00,VWS V14.01,2016-02-05 19:40:00,
2016-02-05 14:45:00,0.0,0.0,30.05,North,11,12.0,15.0,0,0.00,,FEW,0.51,267.00,VWS V14.01,2016-02-05 19:45:00,
2016-02-05 14:50:00,0.0,0.0,30.05,NNE,30,5.0,15.0,0,0.00,,FEW,0.51,255.00,VWS V14.01,2016-02-05 19:50:00,
2016-02-05 14:55:00,0.0,0.0,30.05,NE,36,6.0,15.0,0,0.00,,FEW,0.51,241.00,VWS V14.01,2016-02-05 19:55:00,
2016-02-05 15:00:00,0.0,0.0,30.05,NE,50,7.0,15.0,0,0.00,,FEW,0.51,221.00,VWS V14.01,2016-02-05 20:00:00,
2016-02-05 15:05:00,0.0,0.0,30.05,NNE,15,10.0,15.0,0,0.00,,FEW,0.51,216.00,VWS V14.01,2016-02-05 20:05:00,
2016-02-05 15:10:00,0.0,0.0,30.05,NE,37,9.0,16.0,0,0.00,,FEW,0.51,214.00,VWS V14.01,2016-02-05 20:10:00,
2016-02-05 15:15:00,0.0,0.0,30.05,NNE,31,8.0,16.0,0,0.00,,FEW,0.51,221.00,VWS V14.01,2016-02-05 20:15:00,
2016-02-05 15:25:00,0.0,0.0,30.06,NNE,26,7.0,18.0,0,0.00,,FEW,0.51,216.00,VWS V14.01,2016-02-05 20:25:00,
2016-02-05 15:30:00,0.0,0.0,30.06,NE,54,7.0,14.0,0,0.00,,FEW,0.51,183.00,VWS V14.01,2016-02-05 20:30:00,
2016-02-05 15:35:00,0.0,0.0,30.06,NE,42,6.0,14.0,0,0.00,,FEW,0.51,172.00,VWS V14.01,2016-02-05 20:35:00,
2016-02-05 15:40:00,0.0,0.0,30.06,NE,34,10.0,12.0,0,0.00,,FEW,0.51,178.00,VWS V14.01,2016-02-05 20:40:00,
2016-02-05 15:45:00,0.0,0.0,30.06,North,5,7.0,15.0,0,0.00,,FEW,0.51,181.00,VWS V14.01,2016-02-05 20:45:00,
2016-02-05 15:55:00,0.0,0.0,30.06,NE,40,3.0,14.0,0,0.00,,FEW,0.51,162.00,VWS V14.01,2016-02-05 20:55:00,
2016-02-05 16:00:00,0.0,0.0,30.06,NNE,19,9.0,14.0,0,0.00,,FEW,0.51,141.00,VWS V14.01,2016-02-05 21:00:00,
2016-02-05 16:05:00,0.0,0.0,30.06,NNW,338,10.0,14.0,0,0.00,,FEW,0.51,125.00,VWS V14.01,2016-02-05 21:05:00,
2016-02-05 16:10:00,0.0,0.0,30.06,NNE,13,13.0,14.0,0,0.00,,FEW,0.51,114.00,VWS V14.01,2016-02-05 21:10:00,
2016-02-05 16:15:00,0.0,0.0,30.06,North,11,4.0,16.0,0,0.00,,FEW,0.51,111.00,VWS V14.01,2016-02-05 21:15:00,
2016-02-05 16:20:00,0.0,0.0,30.06,NE,48,13.0,14.0,0,0.00,,FEW,0.51,105.00,VWS V14.01,2016-02-05 21:20:00,
2016-02-05 16:30:00,0.0,0.0,30.06,NE,47,7.0,16.0,0,0.00,,FEW,0.51,88.00,VWS V14.01,2016-02-05 21:30:00,
2016-02-05 16:35:00,0.0,0.0,30.07,NE,42,8.0,16.0,0,0.00,,FEW,0.51,83.00,VWS V14.01,2016-02-05 21:35:00,
2016-02-05 16:45:00,0.0,0.0,30.07,NNE,23,6.0,14.0,0,0.00,,FEW,0.51,67.00,VWS V14.01,2016-02-05 21:45:00,
2016-02-05 16:50:00,0.0,0.0,30.08,NNE,32,2.0,14.0,0,0.00,,FEW,0.51,58.00,VWS V14.01,2016-02-05 21:50:00,
2016-02-05 16:55:00,0.0,0.0,30.08,NE,39,8.0,14.0,0,0.00,,FEW,0.51,56.00,VWS V14.01,2016-02-05 21:55:00,
2016-02-05 17:00:00,0.0,0.0,30.08,North,9,8.0,15.0,0,0.00,,FEW,0.51,53.00,VWS V14.01,2016-02-05 22:00:00,
2016-02-05 17:05:00,0.0,0.0,30.09,NNE,20,6.0,15.0,0,0.00,,FEW,0.51,40.00,VWS V14.01,2016-02-05 22:05:00,
2016-02-05 17:10:00,0.0,0.0,30.09,North,5,12.0,14.0,0,0.00,,FEW,0.51,32.00,VWS V14.01,2016-02-05 22:10:00,
2016-02-05 17:15:00,0.0,0.0,30.09,NNE,22,4.0,14.0,0,0.00,,FEW,0.51,32.00,VWS V14.01,2016-02-05 22:15:00,
2016-02-05 17:20:00,0.0,0.0,30.10,North,355,11.0,15.0,0,0.00,,FEW,0.51,28.00,VWS V14.01,2016-02-05 22:20:00,
2016-02-05 17:30:00,0.0,0.0,30.10,NNE,32,7.0,15.0,0,0.00,,FEW,0.51,19.00,VWS V14.01,2016-02-05 22:30:00,
2016-02-05 17:35:00,0.0,0.0,30.11,NNE,30,8.0,15.0,0,0.00,,FEW,0.51,16.00,VWS V14.01,2016-02-05 22:35:00,
2016-02-05 17:40:00,0.0,0.0,30.11,NE,40,3.0,12.0,0,0.00,,FEW,0.51,14.00,VWS V14.01,2016-02-05 22:40:00,
2016-02-05 17:45:00,0.0,0.0,30.11,NE,39,4.0,14.0,0,0.00,,FEW,0.51,11.00,VWS V14.01,2016-02-05 22:45:00,
2016-02-05 17:50:00,0.0,0.0,30.12,NNE,30,8.0,14.0,0,0.00,,FEW,0.51,7.00,VWS V14.01,2016-02-05 22:50:00,
2016-02-05 17:55:00,0.0,0.0,30.12,NE,34,11.0,16.0,0,0.00,,FEW,0.51,5.00,VWS V14.01,2016-02-05 22:55:00,
2016-02-05 18:00:00,0.0,0.0,30.12,NNE,28,4.0,13.0,0,0.00,,FEW,0.51,0.00,VWS V14.01,2016-02-05 23:00:00,
2016-02-05 18:05:00,0.0,0.0,30.14,NNE,26,4.0,13.0,0,0.00,,FEW,0.51,0.00,VWS V14.01,2016-02-05 23:05:00,
2016-02-05 18:10:00,0.0,0.0,30.14,NNE,33,4.0,9.0,0,0.00,,FEW,0.51,0.00,VWS V14.01,2016-02-05 23:10:00,
2016-02-05 18:15:00,0.0,0.0,30.14,NE,37,7.0,15.0,0,0.00,,FEW,0.51,0.00,VWS V14.01,2016-02-05 23:15:00,
2016-02-05 18:20:00,0.0,0.0,30.14,NNE,32,8.0,12.0,0,0.00,,FEW,0.51,0.00,VWS V14.01,2016-02-05 23:20:00,
2016-02-05 18:25:00,0.0,0.0,30.14,NE,46,5.0,15.0,0,0.00,,FEW,0.51,0.00,VWS V14.01,2016-02-05 23:25:00,
2016-02-05 18:30:00,0.0,0.0,30.14,NNE,17,13.0,16.0,0,0.00,,FEW,0.51,0.00,VWS V14.01,2016-02-05 23:30:00,
2016-02-05 18:35:00,0.0,0.0,30.15,North,350,10.0,16.0,0,0.00,,FEW,0.51,0.00,VWS V14.01,2016-02-05 23:35:00,
2016-02-05 18:45:00,0.0,0.0,30.15,NE,41,6.0,15.0,0,0.00,,FEW,0.51,0.00,VWS V14.01,2016-02-05 23:45:00,
2016-02-05 18:50:00,0.0,0.0,30.15,NE,46,8.0,16.0,0,0.00,,FEW,0.51,0.00,VWS V14.01,2016-02-05 23:50:00,
2016-02-05 18:55:00,0.0,0.0,30.15,North,355,14.0,18.0,0,0.00,,FEW,0.51,0.00,VWS V14.01,2016-02-05 23:55:00,
2016-02-05 19:00:00,0.0,0.0,30.15,NNE,12,10.0,14.0,0,0.00,,FEW,0.51,0.00,VWS V14.01,2016-02-06 00:00:00,
2016-02-05 19:05:00,0.0,0.0,30.16,NE,37,9.0,15.0,0,0.00,,FEW,0.51,0.00,VWS V14.01,2016-02-06 00:05:00,
2016-02-05 19:10:00,0.0,0.0,30.16,NE,50,12.0,13.0,0,0.00,,FEW,0.51,0.00,VWS V14.01,2016-02-06 00:10:00,
2016-02-05 19:15:00,0.0,0.0,30.16,NE,46,10.0,14.0,0,0.00,,FEW,0.51,0.00,VWS V14.01,2016-02-06 00:15:00,
2016-02-05 19:20:00,0.0,0.0,30.17,NE,42,11.0,15.0,0,0.00,,FEW,0.51,0.00,VWS V14.01,2016-02-06 00:20:00,
2016-02-05 19:25:00,0.0,0.0,30.17,NNE,33,8.0,15.0,0,0.00,,FEW,0.51,0.00,VWS V14.01,2016-02-06 00:25:00,
2016-02-05 19:30:00,0.0,0.0,30.17,NNE,14,10.0,14.0,0,0.00,,FEW,0.51,0.00,VWS V14.01,2016-02-06 00:30:00,
2016-02-05 19:35:00,0.0,0.0,30.17,NE,34,8.0,14.0,0,0.00,,FEW,0.51,0.00,VWS V14.01,2016-02-06 00:35:00,
2016-02-05 19:40:00,0.0,0.0,30.17,NE,55,7.0,19.0,0,0.00,,FEW,0.51,0.00,VWS V14.01,2016-02-06 00:40:00,
2016-02-05 19:45:00,0.0,0.0,30.17,NE,36,8.0,19.0,0,0.00,,FEW,0.51,0.00,VWS V14.01,2016-02-06 00:45:00,
2016-02-05 19:50:00,0.0,0.0,30.18,ENE,58,11.0,12.0,0,0.00,,FEW,0.51,0.00,VWS V14.01,2016-02-06 00:50:00,
2016-02-05 20:00:00,0.0,0.0,30.18,NE,41,6.0,11.0,0,0.00,,FEW,0.51,0.00,VWS V14.01,2016-02-06 01:00:00,
2016-02-05 20:05:00,0.0,0.0,30.18,NNE,23,5.0,11.0,0,0.00,,FEW,0.51,0.00,VWS V14.01,2016-02-06 01:05:00,
2016-02-05 20:10:00,0.0,0.0,30.18,NNE,28,11.0,13.0,0,0.00,,FEW,0.51,0.00,VWS V14.01,2016-02-06 01:10:00,
2016-02-05 20:15:00,0.0,0.0,30.18,NE,36,5.0,14.0,0,0.00,,FEW,0.51,0.00,VWS V14.01,2016-02-06 01:15:00,
2016-02-05 20:20:00,0.0,0.0,30.19,NE,40,9.0,13.0,0,0.00,,FEW,0.51,0.00,VWS V14.01,2016-02-06 01:20:00,
2016-02-05 20:25:00,0.0,0.0,30.19,NE,42,7.0,15.0,0,0.00,,FEW,0.51,0.00,VWS V14.01,2016-02-06 01:25:00,
2016-02-05 20:30:00,0.0,0.0,30.19,NE,45,6.0,15.0,0,0.00,,FEW,0.51,0.00,VWS V14.01,2016-02-06 01:30:00,
2016-02-05 20:35:00,0.0,0.0,30.20,NNE,25,10.0,15.0,0,0.00,,FEW,0.51,0.00,VWS V14.01,2016-02-06 01:35:00,
2016-02-05 20:40:00,0.0,0.0,30.20,NNE,31,3.0,14.0,0,0.00,,FEW,0.51,0.00,VWS V14.01,2016-02-06 01:40:00,
2016-02-05 20:45:00,0.0,0.0,30.20,NNE,26,7.0,14.0,0,0.00,,FEW,0.51,0.00,VWS V14.01,2016-02-06 01:45:00,
2016-02-05 20:50:00,0.0,0.0,30.20,ENE,64,8.0,15.0,0,0.00,,FEW,0.51,0.00,VWS V14.01,2016-02-06 01:50:00,
2016-02-05 20:55:00,0.0,0.0,30.20,NE,34,3.0,15.0,0,0.00,,FEW,0.51,0.00,VWS V14.01,2016-02-06 01:55:00,
2016-02-05 21:00:00,0.0,0.0,30.20,NNE,30,5.0,11.0,0,0.00,,FEW,0.51,0.00,VWS V14.01,2016-02-06 02:00:00,
2016-02-05 21:05:00,0.0,0.0,30.21,NNW,342,7.0,17.0,0,0.00,,FEW,0.51,0.00,VWS V14.01,2016-02-06 02:05:00,
2016-02-05 21:10:00,0.0,0.0,30.21,NE,44,6.0,11.0,0,0.00,,FEW,0.51,0.00,VWS V14.01,2016-02-06 02:10:00,
2016-02-05 21:15:00,0.0,0.0,30.21,NNE,18,6.0,11.0,0,0.00,,FEW,0.51,0.00,VWS V14.01,2016-02-06 02:15:00,
2016-02-05 21:20:00,0.0,0.0,30.21,NE,37,9.0,17.0,0,0.00,,FEW,0.51,0.00,VWS V14.01,2016-02-06 02:20:00,
2016-02-05 21:30:00,0.0,0.0,30.21,NNE,33,7.0,12.0,0,0.00,,FEW,0.51,0.00,VWS V14.01,2016-02-06 02:30:00,
2016-02-05 21:35:00,0.0,0.0,30.22,NE,40,11.0,17.0,0,0.00,,FEW,0.51,0.00,VWS V14.01,2016-02-06 02:35:00,
2016-02-05 21:40:00,0.0,0.0,30.22,NE,44,8.0,15.0,0,0.00,,FEW,0.51,0.00,VWS V14.01,2016-02-06 02:40:00,
2016-02-05 21:45:00,0.0,0.0,30.22,NNE,30,4.0,15.0,0,0.00,,FEW,0.51,0.00,VWS V14.01,2016-02-06 02:45:00,
2016-02-05 21:50:00,0.0,0.0,30.22,NE,40,8.0,13.0,0,0.00,,FEW,0.51,0.00,VWS V14.01,2016-02-06 02:50:00,
2016-02-05 21:55:00,0.0,0.0,30.22,NE,37,6.0,13.0,0,0.00,,FEW,0.51,0.00,VWS V14.01,2016-02-06 02:55:00,
2016-02-05 22:05:00,0.0,0.0,30.22,NNE,29,9.0,14.0,0,0.00,,FEW,0.51,0.00,VWS V14.01,2016-02-06 03:05:00,
2016-02-05 22:10:00,0.0,0.0,30.22,NE,34,11.0,13.0,0,0.00,,FEW,0.51,0.00,VWS V14.01,2016-02-06 03:10:00,
2016-02-05 22:15:00,0.0,0.0,30.22,NNE,19,7.0,13.0,0,0.00,,FEW,0.51,0.00,VWS V14.01,2016-02-06 03:15:00,
2016-02-05 22:20:00,0.0,0.0,30.23,NNE,27,12.0,13.0,0,0.00,,FEW,0.51,0.00,VWS V14.01,2016-02-06 03:20:00,
2016-02-05 22:25:00,0.0,0.0,30.23,NNE,25,7.0,15.0,0,0.00,,FEW,0.51,0.00,VWS V14.01,2016-02-06 03:25:00,
2016-02-05 22:30:00,0.0,0.0,30.23,ENE,72,11.0,13.0,0,0.00,,FEW,0.51,0.00,VWS V14.01,2016-02-06 03:30:00,
2016-02-05 22:35:00,0.0,0.0,30.24,NE,40,2.0,13.0,0,0.00,,FEW,0.51,0.00,VWS V14.01,2016-02-06 03:35:00,